createdAt,value
2023-03-05T00:02:02.318Z,2.05
2023-03-05T00:04:29.170Z,2.25
2023-03-05T00:06:55.957Z,1.90
2023-03-05T00:09:22.788Z,2.58
2023-03-05T00:11:49.744Z,2.60
2023-03-05T00:14:16.574Z,2.78
2023-03-05T00:16:43.488Z,2.78
2023-03-05T00:19:11.165Z,2.33
2023-03-05T00:21:40.059Z,2.47
2023-03-05T00:24:11.243Z,2.25
2023-03-05T00:26:39.158Z,2.28
2023-03-05T00:29:07.954Z,1.17
2023-03-05T00:31:36.518Z,1.48
2023-03-05T00:34:09.469Z,1.67
2023-03-05T00:36:40.288Z,1.90
2023-03-05T00:39:07.282Z,1.75
2023-03-05T00:41:34.290Z,1.40
2023-03-05T00:44:01.295Z,1.73
2023-03-05T00:46:28.587Z,1.80
2023-03-05T00:48:56.604Z,1.67
2023-03-05T00:51:24.709Z,1.50
2023-03-05T00:53:51.652Z,1.67
2023-03-05T00:56:18.455Z,1.67
2023-03-05T00:58:45.293Z,1.48
2023-03-05T01:01:12.137Z,1.92
2023-03-05T01:03:39.049Z,2.33
2023-03-05T01:06:08.802Z,1.08
2023-03-05T01:08:36.253Z,1.65
2023-03-05T01:11:04.171Z,1.10
2023-03-05T01:13:31.153Z,1.27
2023-03-05T01:15:57.985Z,1.35
2023-03-05T01:18:24.856Z,1.08
2023-03-05T01:20:51.776Z,0.98
2023-03-05T01:23:18.720Z,1.13
2023-03-05T01:25:45.607Z,1.15
2023-03-05T01:28:12.545Z,0.70
2023-03-05T01:30:39.400Z,0.90
2023-03-05T01:33:06.172Z,0.90
2023-03-05T01:35:33.089Z,1.13
2023-03-05T01:37:59.941Z,1.05
2023-03-05T01:40:29.148Z,0.90
2023-03-05T01:43:01.503Z,0.80
2023-03-05T01:45:32.566Z,0.63
2023-03-05T01:48:00.148Z,0.95
2023-03-05T01:50:28.703Z,1.10
2023-03-05T01:53:03.599Z,0.68
2023-03-05T01:55:32.939Z,1.20
2023-03-05T01:58:07.045Z,1.05
2023-03-05T02:00:43.481Z,1.10
2023-03-05T02:03:12.466Z,1.25
2023-03-05T02:05:41.332Z,1.45
2023-03-05T02:08:10.369Z,0.80
2023-03-05T02:10:43.013Z,1.42
2023-03-05T02:13:16.074Z,0.70
2023-03-05T02:15:43.046Z,0.82
2023-03-05T02:18:10.396Z,0.88
2023-03-05T02:20:56.858Z,1.08
2023-03-05T02:23:29.076Z,0.60
2023-03-05T02:25:56.477Z,0.70
2023-03-05T02:28:31.170Z,0.52
2023-03-05T02:30:58.051Z,0.60
2023-03-05T02:33:25.871Z,0.60
2023-03-05T02:35:52.880Z,0.60
2023-03-05T02:38:21.216Z,0.70
2023-03-05T02:40:48.253Z,0.77
2023-03-05T02:43:16.641Z,0.70
2023-03-05T02:45:43.651Z,1.05
2023-03-05T02:48:10.570Z,0.90
2023-03-05T02:50:39.884Z,0.90
2023-03-05T02:53:06.972Z,0.82
2023-03-05T02:55:33.890Z,0.90
2023-03-05T02:58:00.704Z,0.80
2023-03-05T03:00:28.201Z,1.02
2023-03-05T03:02:55.429Z,1.00
2023-03-05T03:05:22.939Z,1.00
2023-03-05T03:07:50.186Z,1.20
2023-03-05T03:10:17.500Z,1.20
2023-03-05T03:12:45.089Z,0.82
2023-03-05T03:15:14.095Z,1.50
2023-03-05T03:17:40.879Z,0.90
2023-03-05T03:20:10.233Z,0.80
2023-03-05T03:22:37.262Z,0.80
2023-03-05T03:25:05.165Z,0.80
2023-03-05T03:27:32.010Z,0.85
2023-03-05T03:30:04.983Z,1.05
2023-03-05T03:32:32.938Z,0.90
2023-03-05T03:35:00.135Z,1.20
2023-03-05T03:37:27.022Z,0.80
2023-03-05T03:39:53.817Z,0.65
2023-03-05T03:42:21.840Z,1.00
2023-03-05T03:44:49.472Z,0.93
2023-03-05T03:47:16.879Z,0.65
2023-03-05T03:49:43.645Z,1.13
2023-03-05T03:52:10.640Z,0.80
2023-03-05T03:54:37.444Z,1.08
2023-03-05T03:57:05.184Z,0.80
2023-03-05T03:59:32.074Z,0.88
2023-03-05T04:01:58.918Z,0.90
2023-03-05T04:04:26.770Z,0.98
2023-03-05T04:06:53.703Z,0.85
2023-03-05T04:09:20.525Z,0.77
2023-03-05T04:11:47.369Z,0.80
2023-03-05T04:14:14.214Z,0.90
2023-03-05T04:16:41.049Z,0.68
2023-03-05T04:19:07.855Z,0.82
2023-03-05T04:21:34.654Z,1.10
2023-03-05T04:24:01.378Z,0.77
2023-03-05T04:26:28.171Z,0.60
2023-03-05T04:28:54.904Z,0.65
2023-03-05T04:31:21.833Z,0.52
2023-03-05T04:33:48.579Z,0.80
2023-03-05T04:36:15.366Z,0.80
2023-03-05T04:38:42.282Z,0.70
2023-03-05T04:41:09.149Z,0.68
2023-03-05T04:43:35.869Z,0.57
2023-03-05T04:46:02.814Z,0.80
2023-03-05T04:48:29.783Z,0.68
2023-03-05T04:50:58.046Z,0.70
2023-03-05T04:53:28.056Z,0.75
2023-03-05T04:55:55.778Z,0.70
2023-03-05T04:58:23.313Z,0.60
2023-03-05T05:00:50.294Z,0.65
2023-03-05T05:03:17.220Z,0.68
2023-03-05T05:05:44.107Z,0.60
2023-03-05T05:08:11.322Z,0.60
2023-03-05T05:10:41.530Z,0.73
2023-03-05T05:13:08.336Z,0.77
2023-03-05T05:15:35.127Z,0.73
2023-03-05T05:18:02.055Z,0.85
2023-03-05T05:20:29.016Z,0.50
2023-03-05T05:22:55.819Z,0.40
2023-03-05T05:25:22.633Z,0.50
2023-03-05T05:27:49.898Z,0.70
2023-03-05T05:30:17.078Z,0.52
2023-03-05T05:32:44.100Z,0.50
2023-03-05T05:35:11.300Z,0.30
2023-03-05T05:37:38.189Z,0.55
2023-03-05T05:40:08.394Z,0.73
2023-03-05T05:42:35.779Z,0.90
2023-03-05T05:45:03.296Z,0.60
2023-03-05T05:47:30.225Z,0.68
2023-03-05T05:49:57.082Z,0.40
2023-03-05T05:52:23.827Z,0.50
2023-03-05T05:54:50.685Z,0.60
2023-03-05T05:57:17.588Z,0.55
2023-03-05T05:59:44.991Z,0.70
2023-03-05T06:02:11.874Z,0.75
2023-03-05T06:04:40.101Z,0.40
2023-03-05T06:07:07.109Z,0.70
2023-03-05T06:09:35.673Z,0.52
2023-03-05T06:12:02.574Z,0.95
2023-03-05T06:14:29.420Z,0.43
2023-03-05T06:16:56.304Z,0.40
2023-03-05T06:19:23.138Z,0.73
2023-03-05T06:21:49.966Z,0.50
2023-03-05T06:24:16.861Z,0.60
2023-03-05T06:26:43.799Z,0.70
2023-03-05T06:29:10.605Z,0.88
2023-03-05T06:31:37.536Z,0.70
2023-03-05T06:34:04.585Z,1.13
2023-03-05T06:36:32.050Z,0.90
2023-03-05T06:38:58.866Z,2.45
2023-03-05T06:41:29.038Z,1.98
2023-03-05T06:43:56.123Z,1.17
2023-03-05T06:46:28.127Z,0.80
2023-03-05T06:48:57.207Z,1.27
2023-03-05T06:51:26.161Z,0.90
2023-03-05T06:53:53.829Z,1.10
2023-03-05T06:56:21.909Z,1.10
2023-03-05T06:58:51.129Z,1.00
2023-03-05T07:01:18.629Z,1.00
2023-03-05T07:03:49.289Z,1.05
2023-03-05T07:06:16.502Z,1.05
2023-03-05T07:08:44.963Z,0.73
2023-03-05T07:11:13.728Z,0.70
2023-03-05T07:13:40.624Z,0.75
2023-03-05T07:16:09.509Z,0.80
2023-03-05T07:18:36.928Z,0.90
2023-03-05T07:21:08.287Z,0.93
2023-03-05T07:23:36.066Z,1.27
2023-03-05T07:26:04.403Z,0.70
2023-03-05T07:28:31.926Z,1.20
2023-03-05T07:31:00.459Z,0.95
2023-03-05T07:33:27.535Z,1.08
2023-03-05T07:35:54.902Z,0.80
2023-03-05T07:38:21.798Z,0.90
2023-03-05T07:40:48.792Z,0.90
2023-03-05T07:43:15.613Z,0.57
2023-03-05T07:45:44.897Z,0.65
2023-03-05T07:48:17.756Z,0.50
2023-03-05T07:50:44.813Z,0.50
2023-03-05T07:53:11.695Z,0.55
2023-03-05T07:55:46.340Z,0.50
2023-03-05T07:58:14.337Z,0.50
2023-03-05T08:00:41.563Z,0.47
2023-03-05T08:03:08.461Z,0.45
2023-03-05T08:05:35.625Z,0.40
2023-03-05T08:08:02.410Z,0.50
2023-03-05T08:10:29.212Z,0.40
2023-03-05T08:12:56.078Z,0.40
2023-03-05T08:15:22.875Z,0.40
2023-03-05T08:17:49.788Z,0.40
2023-03-05T08:20:16.677Z,0.75
2023-03-05T08:22:43.495Z,0.43
2023-03-05T08:25:10.422Z,0.45
2023-03-05T08:27:45.013Z,0.30
2023-03-05T08:30:15.715Z,0.40
2023-03-05T08:32:43.144Z,0.30
2023-03-05T08:35:10.619Z,0.32
2023-03-05T08:37:37.560Z,0.40
2023-03-05T08:40:05.260Z,0.30
2023-03-05T08:42:32.117Z,0.40
2023-03-05T08:44:59.121Z,0.30
2023-03-05T08:47:27.063Z,0.30
2023-03-05T08:49:55.823Z,0.30
2023-03-05T08:52:23.396Z,0.30
2023-03-05T08:54:50.648Z,0.20
2023-03-05T08:57:17.503Z,0.30
2023-03-05T08:59:44.347Z,0.45
2023-03-05T09:02:12.709Z,0.38
2023-03-05T09:04:39.769Z,0.38
2023-03-05T09:07:06.668Z,0.20
2023-03-05T09:09:34.235Z,0.40
2023-03-05T09:12:02.118Z,0.30
2023-03-05T09:14:29.568Z,0.47
2023-03-05T09:16:56.951Z,0.30
2023-03-05T09:19:24.274Z,0.47
2023-03-05T09:21:51.412Z,0.47
2023-03-05T09:24:18.284Z,0.35
2023-03-05T09:26:45.143Z,0.32
2023-03-05T09:29:12.584Z,0.75
2023-03-05T09:31:39.857Z,0.60
2023-03-05T09:34:08.306Z,0.70
2023-03-05T09:36:35.515Z,2.08
2023-03-05T09:39:02.322Z,1.30
2023-03-05T09:42:04.165Z,2.22
2023-03-05T09:44:34.945Z,1.38
2023-03-05T09:47:40.321Z,1.50
2023-03-05T09:50:23.830Z,0.80
2023-03-05T09:52:55.704Z,1.42
2023-03-05T09:55:29.548Z,1.17
2023-03-05T09:57:59.285Z,0.90
2023-03-05T10:00:45.378Z,0.60
2023-03-05T10:03:18.626Z,0.68
2023-03-05T10:05:58.625Z,0.40
2023-03-05T10:08:31.716Z,0.60
2023-03-05T10:11:00.005Z,0.85
2023-03-05T10:13:33.519Z,0.75
2023-03-05T10:16:23.652Z,0.95
2023-03-05T10:19:02.194Z,0.77
2023-03-05T10:21:32.693Z,0.63
2023-03-05T10:24:26.199Z,0.63
2023-03-05T10:27:15.534Z,0.40
2023-03-05T10:29:45.288Z,0.65
2023-03-05T10:32:35.256Z,0.65
2023-03-05T10:35:02.179Z,0.50
2023-03-05T10:38:14.267Z,0.60
2023-03-05T10:40:52.214Z,0.60
2023-03-05T10:43:51.280Z,0.60
2023-03-05T10:46:21.624Z,0.50
2023-03-05T10:48:56.173Z,0.95
2023-03-05T10:51:36.813Z,0.90
2023-03-05T10:54:18.187Z,0.70
2023-03-05T10:56:45.125Z,0.60
2023-03-05T10:59:11.927Z,0.60
2023-03-05T11:01:38.806Z,0.80
2023-03-05T11:04:07.447Z,0.70
2023-03-05T11:06:36.272Z,0.60
2023-03-05T11:09:24.763Z,0.85
2023-03-05T11:12:03.927Z,1.00
2023-03-05T11:14:33.467Z,0.40
2023-03-05T11:17:28.524Z,0.40
2023-03-05T11:19:56.708Z,0.50
2023-03-05T11:22:25.729Z,0.45
2023-03-05T11:25:10.272Z,0.60
2023-03-05T11:27:39.239Z,0.50
2023-03-05T11:30:21.193Z,0.45
2023-03-05T11:32:48.184Z,0.60
2023-03-05T11:35:32.156Z,0.90
2023-03-05T11:38:03.898Z,0.70
2023-03-05T11:40:35.822Z,0.65
2023-03-05T11:43:04.859Z,0.40
2023-03-05T11:45:34.153Z,0.43
2023-03-05T11:48:13.303Z,0.85
2023-03-05T11:50:42.217Z,0.73
2023-03-05T11:53:13.441Z,0.50
2023-03-05T11:55:47.122Z,0.50
2023-03-05T11:58:29.058Z,0.70
2023-03-05T12:00:56.693Z,0.50
2023-03-05T12:03:31.063Z,0.70
2023-03-05T12:06:02.394Z,0.73
2023-03-05T12:08:37.910Z,0.57
2023-03-05T12:11:09.683Z,0.60
2023-03-05T12:13:49.429Z,0.65
2023-03-05T12:16:28.428Z,1.40
2023-03-05T12:19:01.461Z,0.60
2023-03-05T12:21:42.221Z,0.90
2023-03-05T12:24:27.768Z,0.80
2023-03-05T12:27:03.991Z,1.17
2023-03-05T12:29:40.186Z,0.70
2023-03-05T12:32:22.220Z,0.90
2023-03-05T12:34:59.692Z,0.80
2023-03-05T12:37:26.518Z,0.80
2023-03-05T12:40:22.100Z,0.70
2023-03-05T12:42:54.026Z,0.68
2023-03-05T12:45:26.856Z,0.88
2023-03-05T12:47:56.451Z,0.70
2023-03-05T12:50:29.682Z,1.00
2023-03-05T12:53:15.234Z,1.45
2023-03-05T12:55:45.976Z,1.10
2023-03-05T12:58:31.637Z,0.82
2023-03-05T13:01:07.902Z,1.10
2023-03-05T13:03:39.588Z,1.45
2023-03-05T13:06:08.294Z,1.25
2023-03-05T13:08:37.405Z,1.08
2023-03-05T13:11:16.915Z,1.17
2023-03-05T13:13:45.146Z,1.00
2023-03-05T13:16:38.649Z,0.75
2023-03-05T13:19:15.810Z,1.20
2023-03-05T13:21:42.698Z,0.75
2023-03-05T13:24:19.244Z,0.85
2023-03-05T13:26:46.279Z,0.90
2023-03-05T13:29:21.255Z,1.23
2023-03-05T13:31:52.090Z,1.33
2023-03-05T13:34:22.714Z,1.63
2023-03-05T13:36:55.542Z,1.42
2023-03-05T13:39:27.362Z,1.75
2023-03-05T13:42:04.352Z,1.50
2023-03-05T13:44:33.547Z,1.80
2023-03-05T13:47:18.935Z,1.95
2023-03-05T13:49:47.388Z,1.50
2023-03-05T13:52:25.214Z,1.30
2023-03-05T13:54:52.114Z,1.85
2023-03-05T13:57:34.350Z,1.60
2023-03-05T14:00:01.319Z,1.05
2023-03-05T14:02:30.703Z,1.08
2023-03-05T14:04:59.550Z,1.00
2023-03-05T14:07:39.418Z,1.23
2023-03-05T14:10:31.826Z,1.13
2023-03-05T14:12:59.867Z,1.38
2023-03-05T14:15:31.189Z,0.90
2023-03-05T14:18:13.342Z,0.60
2023-03-05T14:20:42.398Z,1.10
2023-03-05T14:23:37.968Z,1.20
2023-03-05T14:26:16.644Z,1.48
2023-03-05T14:28:43.511Z,1.25
2023-03-05T14:31:16.531Z,1.10
2023-03-05T14:33:43.673Z,1.05
2023-03-05T14:36:11.359Z,1.20
2023-03-05T14:38:42.489Z,1.60
2023-03-05T14:41:34.398Z,1.30
2023-03-05T14:44:01.871Z,0.80
2023-03-05T14:46:28.859Z,2.88
2023-03-05T14:48:55.785Z,1.75
2023-03-05T14:51:22.659Z,10.57
2023-03-05T14:53:51.166Z,6.22
2023-03-05T14:56:26.562Z,3.92
2023-03-05T14:58:53.977Z,3.40
2023-03-05T15:01:20.949Z,2.85
2023-03-05T15:03:47.801Z,2.42
2023-03-05T15:06:26.037Z,2.00
2023-03-05T15:08:53.456Z,1.42
2023-03-05T15:11:22.668Z,6.43
2023-03-05T15:13:52.824Z,3.95
2023-03-05T15:16:20.170Z,2.27
2023-03-05T15:18:46.983Z,2.47
2023-03-05T15:21:13.826Z,1.52
2023-03-05T15:23:41.216Z,1.02
2023-03-05T15:26:09.556Z,1.25
2023-03-05T15:28:37.860Z,2.70
2023-03-05T15:31:05.957Z,3.25
2023-03-05T15:33:33.341Z,6.15
2023-03-05T15:36:00.241Z,23.10
2023-03-05T15:38:27.072Z,17.52
2023-03-05T15:40:53.932Z,17.02
2023-03-05T15:43:20.788Z,11.00
2023-03-05T15:45:48.201Z,6.18
2023-03-05T15:48:15.086Z,6.53
2023-03-05T15:50:43.506Z,7.72
2023-03-05T15:53:12.193Z,4.93
2023-03-05T15:55:40.145Z,4.10
2023-03-05T15:58:07.364Z,3.78
2023-03-05T16:00:36.549Z,3.33
2023-03-05T16:03:03.742Z,2.78
2023-03-05T16:05:30.672Z,2.25
2023-03-05T16:07:57.721Z,3.40
2023-03-05T16:10:26.332Z,2.30
2023-03-05T16:12:56.337Z,1.73
2023-03-05T16:15:23.469Z,2.42
2023-03-05T16:17:54.200Z,3.70
2023-03-05T16:20:21.561Z,3.65
2023-03-05T16:22:49.461Z,2.47
2023-03-05T16:25:16.773Z,2.10
2023-03-05T16:27:43.515Z,2.15
2023-03-05T16:30:11.098Z,1.88
2023-03-05T16:32:38.851Z,1.63
2023-03-05T16:35:06.180Z,2.22
2023-03-05T16:37:33.003Z,2.22
2023-03-05T16:39:59.958Z,1.98
2023-03-05T16:42:26.966Z,1.27
2023-03-05T16:44:54.297Z,1.75
2023-03-05T16:47:21.318Z,1.52
2023-03-05T16:49:48.278Z,1.83
2023-03-05T16:52:19.584Z,1.50
2023-03-05T16:54:48.465Z,1.60
2023-03-05T16:57:15.934Z,1.77
2023-03-05T16:59:43.838Z,2.03
2023-03-05T17:02:13.280Z,1.75
2023-03-05T17:04:40.186Z,1.77
2023-03-05T17:07:22.288Z,1.70
2023-03-05T17:09:50.496Z,1.48
2023-03-05T17:12:17.301Z,1.05
2023-03-05T17:14:44.226Z,1.33
2023-03-05T17:17:11.539Z,1.33
2023-03-05T17:19:38.693Z,1.27
2023-03-05T17:22:05.595Z,1.40
2023-03-05T17:24:33.408Z,1.60
2023-03-05T17:27:00.548Z,1.10
2023-03-05T17:29:27.428Z,0.80
2023-03-05T17:31:54.254Z,0.98
2023-03-05T17:34:33.290Z,1.48
2023-03-05T17:37:03.188Z,1.60
2023-03-05T17:39:30.438Z,2.00
2023-03-05T17:41:57.632Z,1.90
2023-03-05T17:44:25.101Z,2.45
2023-03-05T17:46:51.908Z,1.30
2023-03-05T17:49:20.062Z,1.30
2023-03-05T17:51:47.130Z,1.20
2023-03-05T17:54:14.037Z,0.95
2023-03-05T17:56:41.074Z,0.85
2023-03-05T17:59:07.842Z,1.30
2023-03-05T18:01:35.042Z,1.10
2023-03-05T18:04:03.459Z,1.00
2023-03-05T18:06:30.272Z,1.20
2023-03-05T18:08:57.171Z,1.60
2023-03-05T18:11:24.278Z,1.33
2023-03-05T18:13:51.200Z,1.25
2023-03-05T18:16:18.397Z,0.95
2023-03-05T18:18:45.764Z,0.90
2023-03-05T18:21:12.796Z,0.77
2023-03-05T18:23:39.758Z,1.38
2023-03-05T18:26:06.645Z,0.90
2023-03-05T18:28:33.354Z,1.35
2023-03-05T18:31:01.326Z,1.60
2023-03-05T18:33:28.262Z,2.95
2023-03-05T18:35:55.094Z,2.10
2023-03-05T18:38:23.386Z,2.25
2023-03-05T18:40:51.520Z,2.05
2023-03-05T18:43:20.697Z,1.27
2023-03-05T18:45:51.982Z,4.35
2023-03-05T18:48:19.155Z,4.85
2023-03-05T18:50:46.964Z,5.20
2023-03-05T18:53:14.394Z,4.25
2023-03-05T18:55:45.024Z,4.65
2023-03-05T18:58:15.839Z,4.03
2023-03-05T19:00:44.905Z,4.68
2023-03-05T19:03:11.925Z,6.00
2023-03-05T19:05:39.870Z,4.53
2023-03-05T19:08:07.907Z,4.95
2023-03-05T19:10:34.839Z,4.82
2023-03-05T19:13:23.799Z,4.70
2023-03-05T19:15:51.257Z,4.32
2023-03-05T19:18:20.662Z,2.22
2023-03-05T19:20:56.299Z,2.80
2023-03-05T19:23:24.186Z,2.40
2023-03-05T19:25:51.001Z,2.42
2023-03-05T19:28:17.915Z,1.67
2023-03-05T19:30:50.419Z,2.50
2023-03-05T19:33:21.280Z,2.40
2023-03-05T19:35:50.110Z,2.67
2023-03-05T19:38:17.350Z,2.03
2023-03-05T19:40:44.189Z,2.35
2023-03-05T19:43:10.922Z,2.78
2023-03-05T19:45:38.345Z,2.50
2023-03-05T19:48:05.587Z,1.40
2023-03-05T19:50:34.407Z,1.90
2023-03-05T19:53:01.658Z,2.13
2023-03-05T19:55:28.672Z,2.13
2023-03-05T19:57:55.528Z,2.47
2023-03-05T20:00:22.640Z,2.20
2023-03-05T20:02:49.412Z,1.95
2023-03-05T20:05:16.240Z,2.08
2023-03-05T20:07:43.047Z,2.38
2023-03-05T20:10:10.483Z,2.10
2023-03-05T20:12:39.292Z,3.10
2023-03-05T20:15:06.678Z,1.58
2023-03-05T20:17:33.608Z,2.50
2023-03-05T20:20:00.436Z,2.53
2023-03-05T20:22:27.259Z,2.78
2023-03-05T20:24:54.037Z,1.73
2023-03-05T20:27:20.839Z,2.30
2023-03-05T20:29:48.075Z,2.33
2023-03-05T20:32:15.363Z,1.48
2023-03-05T20:34:42.232Z,2.25
2023-03-05T20:37:09.059Z,1.90
2023-03-05T20:39:35.944Z,2.08
2023-03-05T20:42:02.782Z,2.13
2023-03-05T20:44:29.601Z,2.10
2023-03-05T20:47:09.973Z,1.95
2023-03-05T20:49:36.843Z,3.58
2023-03-05T20:52:03.703Z,1.90
2023-03-05T20:54:30.701Z,2.15
2023-03-05T20:56:57.428Z,3.15
2023-03-05T20:59:24.887Z,2.53
2023-03-05T21:01:51.714Z,2.00
2023-03-05T21:04:18.577Z,3.15
2023-03-05T21:06:45.389Z,1.95
2023-03-05T21:09:12.195Z,2.67
2023-03-05T21:11:39.045Z,3.15
2023-03-05T21:14:05.872Z,3.65
2023-03-05T21:16:32.822Z,3.10
2023-03-05T21:18:59.767Z,3.28
2023-03-05T21:21:26.567Z,3.10
2023-03-05T21:23:53.671Z,1.73
2023-03-05T21:26:20.806Z,3.22
2023-03-05T21:28:48.067Z,2.17
2023-03-05T21:31:20.691Z,2.22
2023-03-05T21:33:47.649Z,2.80
2023-03-05T21:36:18.801Z,2.67
2023-03-05T21:38:49.615Z,1.52
2023-03-05T21:41:18.307Z,2.17
2023-03-05T21:43:45.197Z,2.72
2023-03-05T21:46:12.403Z,1.92
2023-03-05T21:48:39.323Z,1.65
2023-03-05T21:51:08.717Z,3.13
2023-03-05T21:53:35.996Z,2.00
2023-03-05T21:56:22.517Z,2.05
2023-03-05T21:58:50.137Z,1.38
2023-03-05T22:01:19.370Z,2.67
2023-03-05T22:03:46.807Z,2.00
2023-03-05T22:06:15.328Z,2.28
2023-03-05T22:08:42.165Z,1.55
2023-03-05T22:11:10.797Z,2.10
2023-03-05T22:13:38.087Z,1.73
2023-03-05T22:16:06.135Z,2.22
2023-03-05T22:18:33.855Z,2.00
2023-03-05T22:21:01.250Z,2.08
2023-03-05T22:23:30.770Z,2.00
2023-03-05T22:26:05.943Z,1.90
2023-03-05T22:28:34.056Z,1.70
2023-03-05T22:31:01.183Z,1.30
2023-03-05T22:33:29.041Z,1.88
2023-03-05T22:35:55.976Z,1.90
2023-03-05T22:38:24.178Z,2.13
2023-03-05T22:40:52.579Z,1.85
2023-03-05T22:43:19.677Z,2.38
2023-03-05T22:45:47.061Z,1.58
2023-03-05T22:48:13.985Z,1.48
2023-03-05T22:50:42.074Z,1.40
2023-03-05T22:53:09.141Z,1.27
2023-03-05T22:55:40.213Z,1.50
2023-03-05T22:58:07.325Z,1.55
2023-03-05T23:00:34.240Z,1.83
2023-03-05T23:03:01.423Z,1.50
2023-03-05T23:05:28.343Z,1.90
2023-03-05T23:07:55.247Z,1.35
2023-03-05T23:10:26.952Z,1.30
2023-03-05T23:12:55.296Z,1.25
2023-03-05T23:15:33.945Z,1.98
2023-03-05T23:18:01.692Z,1.15
2023-03-05T23:20:31.301Z,1.50
2023-03-05T23:22:58.433Z,1.10
2023-03-05T23:25:27.958Z,1.60
2023-03-05T23:27:55.664Z,1.40
2023-03-05T23:30:23.771Z,1.35
2023-03-05T23:32:53.795Z,1.13
2023-03-05T23:35:48.290Z,1.15
2023-03-05T23:38:15.443Z,1.38
2023-03-05T23:40:45.142Z,1.20
2023-03-05T23:43:12.525Z,1.52
2023-03-05T23:45:41.720Z,1.02
2023-03-05T23:48:08.814Z,1.33
2023-03-05T23:50:37.495Z,1.00
2023-03-05T23:53:05.010Z,1.23
2023-03-05T23:55:50.148Z,0.85
2023-03-05T23:58:19.212Z,1.02
